Time;durP1;ratioP1;P1;durP2;ratioP2;P2;SDS_P1;SDS_P2;PMS_P1;PMS_P2;Temp;Humidity;BMP_temperature;BMP_pressure;BME280_temperature;BME280_humidity;BME280_pressure;Samples;Min_cycle;Max_cycle;Signal;HPM_P1;HPM_P2
2023/12/24 00:00:36;;;;;;;0.20;0.20;;;;;;;;;;6254227;28;20483;-78
2023/12/24 00:03:37;;;;;;;0.30;0.30;;;;;;;;;;6293204;28;20031;-84
2023/12/24 00:06:37;;;;;;;0.20;0.20;;;;;;;;;;6293194;28;20044;-84
2023/12/24 00:09:37;;;;;;;0.20;0.20;;;;;;;;;;6294199;28;20538;-83
2023/12/24 00:12:38;;;;;;;0.22;0.22;;;;;;;;;;6281363;28;20023;-78
2023/12/24 00:15:38;;;;;;;0.20;0.20;;;;;;;;;;6274968;28;20533;-77
2023/12/24 00:18:38;;;;;;;0.20;0.20;;;;;;;;;;6275120;28;20032;-78
2023/12/24 00:21:38;;;;;;;0.20;0.20;;;;;;;;;;6293482;28;20095;-76
2023/12/24 00:24:38;;;;;;;0.20;0.20;;;;;;;;;;6291665;28;20486;-77
2023/12/24 00:27:39;;;;;;;0.20;0.20;;;;;;;;;;6290979;28;20112;-77
2023/12/24 00:30:39;;;;;;;0.20;0.20;;;;;;;;;;6274915;28;20058;-77
2023/12/24 00:33:39;;;;;;;0.20;0.20;;;;;;;;;;6275531;28;20016;-85
2023/12/24 00:36:39;;;;;;;0.20;0.20;;;;;;;;;;6293344;28;20020;-83
2023/12/24 00:39:40;;;;;;;0.20;0.20;;;;;;;;;;6275867;28;20099;-84
2023/12/24 00:42:41;;;;;;;0.30;0.30;;;;;;;;;;6294066;28;20490;-83
2023/12/24 00:45:44;;;;;;;0.20;0.20;;;;;;;;;;6293739;28;20066;-83
2023/12/24 00:48:45;;;;;;;0.30;0.30;;;;;;;;;;6293720;28;20016;-83
2023/12/24 00:51:45;;;;;;;0.20;0.20;;;;;;;;;;6293235;28;20094;-82
2023/12/24 00:54:45;;;;;;;0.25;0.25;;;;;;;;;;6292552;28;20057;-77
2023/12/24 00:57:45;;;;;;;0.20;0.20;;;;;;;;;;6290621;28;20378;-76
2023/12/24 01:00:46;;;;;;;0.30;0.30;;;;;;;;;;6292191;28;20430;-76
2023/12/24 01:03:46;;;;;;;0.20;0.20;;;;;;;;;;6272688;28;20033;-76
2023/12/24 01:06:47;;;;;;;0.30;0.30;;;;;;;;;;6274081;28;20587;-76
2023/12/24 01:09:47;;;;;;;0.30;0.30;;;;;;;;;;6290949;28;20387;-76
2023/12/24 01:12:47;;;;;;;0.30;0.30;;;;;;;;;;6267672;28;20073;-77
2023/12/24 01:15:48;;;;;;;0.20;0.20;;;;;;;;;;6268901;28;20029;-77
2023/12/24 01:18:48;;;;;;;0.30;0.30;;;;;;;;;;6292015;28;20017;-76
2023/12/24 01:21:49;;;;;;;0.20;0.20;;;;;;;;;;6291114;28;20046;-77
2023/12/24 01:24:49;;;;;;;0.20;0.20;;;;;;;;;;6262342;28;20012;-76
2023/12/24 01:27:52;;;;;;;0.20;0.20;;;;;;;;;;6270846;28;20017;-77
2023/12/24 01:30:52;;;;;;;0.20;0.20;;;;;;;;;;6284260;28;20024;-77
2023/12/24 01:33:53;;;;;;;0.23;0.23;;;;;;;;;;6291923;28;20532;-76
2023/12/24 01:36:53;;;;;;;0.20;0.20;;;;;;;;;;6277132;28;20062;-77
2023/12/24 01:39:53;;;;;;;0.20;0.20;;;;;;;;;;6291828;28;20024;-77
2023/12/24 01:42:53;;;;;;;0.30;0.30;;;;;;;;;;6279717;28;20036;-77
2023/12/24 01:45:54;;;;;;;0.20;0.20;;;;;;;;;;6290474;28;20032;-77
2023/12/24 01:48:55;;;;;;;0.30;0.30;;;;;;;;;;6285810;28;20029;-77
2023/12/24 01:51:56;;;;;;;0.30;0.30;;;;;;;;;;6272086;28;20537;-77
2023/12/24 01:54:57;;;;;;;0.20;0.20;;;;;;;;;;6262969;28;20792;-77
2023/12/24 01:57:58;;;;;;;0.20;0.20;;;;;;;;;;6267784;28;20103;-78
2023/12/24 02:00:58;;;;;;;0.20;0.20;;;;;;;;;;6280497;28;20024;-85
2023/12/24 02:03:59;;;;;;;0.20;0.20;;;;;;;;;;6283584;28;20489;-77
2023/12/24 02:06:59;;;;;;;0.20;0.20;;;;;;;;;;6295715;28;20056;-77
2023/12/24 02:09:59;;;;;;;0.20;0.20;;;;;;;;;;6293393;28;20091;-76
2023/12/24 02:13:00;;;;;;;0.30;0.30;;;;;;;;;;6278495;28;20029;-77
2023/12/24 02:16:01;;;;;;;0.20;0.20;;;;;;;;;;6290253;28;20051;-77
2023/12/24 02:19:01;;;;;;;0.20;0.20;;;;;;;;;;6278908;28;20020;-76
2023/12/24 02:22:02;;;;;;;0.20;0.20;;;;;;;;;;6296979;28;20538;-76
2023/12/24 02:25:03;;;;;;;0.20;0.20;;;;;;;;;;6278239;28;20050;-84
2023/12/24 02:28:11;;;;;;;0.20;0.20;;;;;;;;;;6277987;28;20071;-83
2023/12/24 02:31:13;;;;;;;0.30;0.30;;;;;;;;;;6295835;28;20032;-83
2023/12/24 02:34:16;;;;;;;0.30;0.30;;;;;;;;;;6296153;28;20513;-83
2023/12/24 02:37:16;;;;;;;0.30;0.30;;;;;;;;;;6293683;28;20494;-83
2023/12/24 02:40:17;;;;;;;0.30;0.30;;;;;;;;;;6296864;28;20032;-83
2023/12/24 02:43:17;;;;;;;0.20;0.20;;;;;;;;;;6277491;28;20016;-83
2023/12/24 02:46:17;;;;;;;0.20;0.20;;;;;;;;;;6278065;28;20028;-83
2023/12/24 02:49:18;;;;;;;0.30;0.30;;;;;;;;;;6296179;28;20024;-83
2023/12/24 02:52:19;;;;;;;0.20;0.20;;;;;;;;;;6277456;28;20025;-83
2023/12/24 02:55:19;;;;;;;0.20;0.20;;;;;;;;;;6258953;28;20035;-84
2023/12/24 02:58:19;;;;;;;0.20;0.20;;;;;;;;;;6277673;28;20020;-84
2023/12/24 03:01:19;;;;;;;0.22;0.22;;;;;;;;;;6277502;28;20020;-83
2023/12/24 03:04:19;;;;;;;0.30;0.30;;;;;;;;;;6277073;28;20016;-83
2023/12/24 03:07:19;;;;;;;0.20;0.20;;;;;;;;;;6248744;28;20195;-83
2023/12/24 03:10:20;;;;;;;0.27;0.27;;;;;;;;;;6244946;28;20021;-83
2023/12/24 03:13:20;;;;;;;0.20;0.20;;;;;;;;;;6238682;28;20033;-78
2023/12/24 03:16:20;;;;;;;0.30;0.30;;;;;;;;;;6230476;28;20021;-78
2023/12/24 03:19:21;;;;;;;0.20;0.20;;;;;;;;;;6243801;28;20018;-78
2023/12/24 03:22:22;;;;;;;0.20;0.20;;;;;;;;;;6245628;28;20064;-78
2023/12/24 03:25:22;;;;;;;0.20;0.20;;;;;;;;;;6245151;28;20026;-77
2023/12/24 03:28:22;;;;;;;0.30;0.30;;;;;;;;;;6243666;28;20021;-77
2023/12/24 03:31:26;;;;;;;0.30;0.30;;;;;;;;;;6244818;28;20079;-77
2023/12/24 03:34:27;;;;;;;0.20;0.20;;;;;;;;;;6245868;28;20100;-83
2023/12/24 03:37:27;;;;;;;0.20;0.20;;;;;;;;;;6243880;28;20014;-83
2023/12/24 03:40:28;;;;;;;0.23;0.23;;;;;;;;;;6245665;28;20468;-82
2023/12/24 03:43:29;;;;;;;0.30;0.30;;;;;;;;;;6244865;28;20582;-77
2023/12/24 03:46:29;;;;;;;0.20;0.20;;;;;;;;;;6245272;28;20063;-78
2023/12/24 03:49:30;;;;;;;0.20;0.20;;;;;;;;;;6234455;28;20489;-78
2023/12/24 03:52:30;;;;;;;0.20;0.20;;;;;;;;;;6234747;28;20127;-78
2023/12/24 03:55:30;;;;;;;0.20;0.20;;;;;;;;;;6241764;28;20376;-77
2023/12/24 03:58:31;;;;;;;0.20;0.20;;;;;;;;;;6244463;28;20079;-78
2023/12/24 04:01:31;;;;;;;0.20;0.20;;;;;;;;;;6240420;28;20079;-78
2023/12/24 04:04:31;;;;;;;0.30;0.30;;;;;;;;;;6244273;28;20024;-78
2023/12/24 04:07:32;;;;;;;0.20;0.20;;;;;;;;;;6288820;28;20440;-78
2023/12/24 04:10:33;;;;;;;0.20;0.20;;;;;;;;;;6275242;28;20462;-78
2023/12/24 04:13:33;;;;;;;0.20;0.20;;;;;;;;;;6293669;28;20282;-78
2023/12/24 04:16:33;;;;;;;0.20;0.20;;;;;;;;;;6289184;28;20028;-78
2023/12/24 04:19:33;;;;;;;0.20;0.20;;;;;;;;;;6288145;28;20017;-78
2023/12/24 04:22:33;;;;;;;0.20;0.20;;;;;;;;;;6292242;28;20044;-78
2023/12/24 04:25:34;;;;;;;0.20;0.20;;;;;;;;;;6292906;28;20017;-78
2023/12/24 04:28:35;;;;;;;0.20;0.20;;;;;;;;;;6293563;28;20069;-78
2023/12/24 04:31:39;;;;;;;0.20;0.20;;;;;;;;;;6292806;28;20340;-78
2023/12/24 04:34:39;;;;;;;0.30;0.30;;;;;;;;;;6292915;28;20339;-78
2023/12/24 04:37:39;;;;;;;0.20;0.20;;;;;;;;;;6281945;28;20020;-78
2023/12/24 04:40:39;;;;;;;0.20;0.20;;;;;;;;;;6274888;28;20008;-78
2023/12/24 04:43:39;;;;;;;0.20;0.20;;;;;;;;;;6262504;28;20367;-78
2023/12/24 04:46:41;;;;;;;0.30;0.30;;;;;;;;;;6291408;28;20025;-78
2023/12/24 04:49:41;;;;;;;0.30;0.30;;;;;;;;;;6272344;28;20025;-78
2023/12/24 04:52:41;;;;;;;0.20;0.20;;;;;;;;;;6274908;28;20013;-78
2023/12/24 04:55:42;;;;;;;0.23;0.23;;;;;;;;;;6289397;28;20055;-78
2023/12/24 04:58:42;;;;;;;0.30;0.30;;;;;;;;;;6278028;28;20390;-78
2023/12/24 05:01:42;;;;;;;0.20;0.20;;;;;;;;;;6293022;28;20020;-78
2023/12/24 05:04:43;;;;;;;0.30;0.30;;;;;;;;;;6292590;28;20142;-78
2023/12/24 05:07:43;;;;;;;0.20;0.20;;;;;;;;;;6291847;28;20067;-78
2023/12/24 05:10:44;;;;;;;0.20;0.20;;;;;;;;;;6273988;28;20360;-79
2023/12/24 05:13:44;;;;;;;0.20;0.20;;;;;;;;;;6266774;28;20025;-78
2023/12/24 05:16:44;;;;;;;0.20;0.20;;;;;;;;;;6291513;28;20492;-78
2023/12/24 05:19:45;;;;;;;0.20;0.20;;;;;;;;;;6292546;28;20027;-78
2023/12/24 05:22:45;;;;;;;0.20;0.20;;;;;;;;;;6291428;28;20518;-78
2023/12/24 05:25:45;;;;;;;0.30;0.30;;;;;;;;;;6286963;28;20013;-79
2023/12/24 05:28:46;;;;;;;0.20;0.20;;;;;;;;;;6282265;28;20016;-78
2023/12/24 05:31:46;;;;;;;0.30;0.30;;;;;;;;;;6279351;28;20259;-79
2023/12/24 05:34:46;;;;;;;0.20;0.20;;;;;;;;;;6270319;28;20028;-79
2023/12/24 05:37:46;;;;;;;0.30;0.30;;;;;;;;;;6289153;28;20016;-79
2023/12/24 05:40:47;;;;;;;0.30;0.30;;;;;;;;;;6288836;28;20082;-78
2023/12/24 05:43:47;;;;;;;0.30;0.30;;;;;;;;;;6283132;28;20030;-81
2023/12/24 05:46:53;;;;;;;0.20;0.20;;;;;;;;;;6283739;28;20032;-81
2023/12/24 05:49:53;;;;;;;0.22;0.22;;;;;;;;;;6265859;28;20135;-81
2023/12/24 05:52:54;;;;;;;0.20;0.20;;;;;;;;;;6285213;28;20020;-80
2023/12/24 05:55:54;;;;;;;0.20;0.20;;;;;;;;;;6265231;28;20021;-80
2023/12/24 05:58:54;;;;;;;0.20;0.20;;;;;;;;;;6263246;28;20024;-80
2023/12/24 06:01:54;;;;;;;0.20;0.20;;;;;;;;;;6278534;28;20031;-80
2023/12/24 06:04:54;;;;;;;0.20;0.20;;;;;;;;;;6280000;28;20425;-80
2023/12/24 06:07:54;;;;;;;0.20;0.20;;;;;;;;;;6289501;28;20023;-80
2023/12/24 06:10:55;;;;;;;0.20;0.20;;;;;;;;;;6286388;28;20096;-80
2023/12/24 06:13:55;;;;;;;0.20;0.20;;;;;;;;;;6273268;28;20008;-80
2023/12/24 06:16:55;;;;;;;0.20;0.20;;;;;;;;;;6283831;28;20476;-80
2023/12/24 06:19:55;;;;;;;0.20;0.20;;;;;;;;;;6265634;28;20245;-80
2023/12/24 06:22:55;;;;;;;0.20;0.20;;;;;;;;;;6266334;28;20032;-80
2023/12/24 06:25:56;;;;;;;0.20;0.20;;;;;;;;;;6286691;28;20086;-79
2023/12/24 06:28:56;;;;;;;0.20;0.20;;;;;;;;;;6288188;28;20020;-80
2023/12/24 06:31:56;;;;;;;0.20;0.20;;;;;;;;;;6284109;28;20033;-80
2023/12/24 06:34:57;;;;;;;0.20;0.20;;;;;;;;;;6283598;28;20028;-79
2023/12/24 06:37:57;;;;;;;0.20;0.20;;;;;;;;;;6279692;28;20029;-79
2023/12/24 06:40:57;;;;;;;0.20;0.20;;;;;;;;;;6285074;28;20094;-79
2023/12/24 06:43:57;;;;;;;0.20;0.20;;;;;;;;;;6289668;28;20099;-79
2023/12/24 06:46:58;;;;;;;0.20;0.20;;;;;;;;;;6290868;28;20024;-79
2023/12/24 06:49:58;;;;;;;0.20;0.20;;;;;;;;;;6292028;28;20494;-80
2023/12/24 06:52:58;;;;;;;0.20;0.20;;;;;;;;;;6292724;28;20445;-79
2023/12/24 06:55:58;;;;;;;0.20;0.20;;;;;;;;;;6290592;28;20108;-78
2023/12/24 06:58:59;;;;;;;0.20;0.20;;;;;;;;;;6276933;28;20097;-78
2023/12/24 07:01:59;;;;;;;0.20;0.20;;;;;;;;;;6290530;28;20020;-78
2023/12/24 07:04:59;;;;;;;0.20;0.20;;;;;;;;;;6290962;28;20090;-78
2023/12/24 07:08:00;;;;;;;0.20;0.20;;;;;;;;;;6275429;28;20016;-78
2023/12/24 07:11:00;;;;;;;0.20;0.20;;;;;;;;;;6259578;28;20017;-78
2023/12/24 07:14:00;;;;;;;0.20;0.20;;;;;;;;;;6286803;28;20044;-78
2023/12/24 07:17:01;;;;;;;0.20;0.20;;;;;;;;;;6289134;28;20435;-78
2023/12/24 07:20:01;;;;;;;0.20;0.20;;;;;;;;;;6270985;28;20017;-77
2023/12/24 07:23:01;;;;;;;0.20;0.20;;;;;;;;;;6289729;28;20016;-77
2023/12/24 07:26:01;;;;;;;0.20;0.20;;;;;;;;;;6286144;28;20016;-77
2023/12/24 07:29:02;;;;;;;0.30;0.30;;;;;;;;;;6288450;28;20107;-77
2023/12/24 07:32:02;;;;;;;0.20;0.20;;;;;;;;;;6291777;28;20024;-79
2023/12/24 07:35:03;;;;;;;0.20;0.20;;;;;;;;;;6291932;28;20036;-77
2023/12/24 07:38:03;;;;;;;0.20;0.20;;;;;;;;;;6290775;28;20093;-77
2023/12/24 07:41:03;;;;;;;0.20;0.20;;;;;;;;;;6289382;28;20032;-77
2023/12/24 07:44:03;;;;;;;0.30;0.30;;;;;;;;;;6275391;28;20165;-76
2023/12/24 07:47:04;;;;;;;0.20;0.20;;;;;;;;;;6276604;28;20020;-76
2023/12/24 07:50:05;;;;;;;0.20;0.20;;;;;;;;;;6290125;28;20020;-76
2023/12/24 07:53:05;;;;;;;0.20;0.20;;;;;;;;;;6271971;28;20094;-76
2023/12/24 07:56:05;;;;;;;0.20;0.20;;;;;;;;;;6280448;28;20017;-76
2023/12/24 07:59:06;;;;;;;0.20;0.20;;;;;;;;;;6289674;28;20044;-76
2023/12/24 08:02:06;;;;;;;0.20;0.20;;;;;;;;;;6284923;28;20019;-76
2023/12/24 08:05:06;;;;;;;0.20;0.20;;;;;;;;;;6293159;28;20024;-79
2023/12/24 08:08:06;;;;;;;0.20;0.20;;;;;;;;;;6292646;28;20024;-79
2023/12/24 08:11:07;;;;;;;0.20;0.20;;;;;;;;;;6287803;28;20013;-79
2023/12/24 08:14:07;;;;;;;0.20;0.20;;;;;;;;;;6292589;28;20029;-79
2023/12/24 08:17:07;;;;;;;0.20;0.20;;;;;;;;;;6287067;28;20021;-79
2023/12/24 08:20:08;;;;;;;0.20;0.20;;;;;;;;;;6283584;28;20020;-79
2023/12/24 08:23:10;;;;;;;0.20;0.20;;;;;;;;;;6290433;28;20475;-79
2023/12/24 08:26:11;;;;;;;0.20;0.20;;;;;;;;;;6271907;28;20024;-79
2023/12/24 08:29:11;;;;;;;0.20;0.20;;;;;;;;;;6281605;28;20025;-79
2023/12/24 08:32:11;;;;;;;0.20;0.20;;;;;;;;;;6291399;28;20096;-78
2023/12/24 08:35:11;;;;;;;0.20;0.20;;;;;;;;;;6285436;28;20021;-78
2023/12/24 08:38:11;;;;;;;0.20;0.20;;;;;;;;;;6285088;28;20457;-78
2023/12/24 08:41:12;;;;;;;0.20;0.20;;;;;;;;;;6285549;28;20028;-77
2023/12/24 08:44:12;;;;;;;0.20;0.20;;;;;;;;;;6288173;28;20078;-77
2023/12/24 08:47:12;;;;;;;0.20;0.20;;;;;;;;;;6292614;28;20024;-77
2023/12/24 08:50:13;;;;;;;0.20;0.20;;;;;;;;;;6288579;28;20527;-76
2023/12/24 08:53:13;;;;;;;0.20;0.20;;;;;;;;;;6292655;28;20028;-77
2023/12/24 08:56:13;;;;;;;0.20;0.20;;;;;;;;;;6291540;28;20467;-76
2023/12/24 08:59:13;;;;;;;0.20;0.20;;;;;;;;;;6284077;28;20087;-76
2023/12/24 09:02:13;;;;;;;0.20;0.20;;;;;;;;;;6284674;28;20071;-77
2023/12/24 09:05:14;;;;;;;0.20;0.20;;;;;;;;;;6290253;28;20571;-76
2023/12/24 09:08:14;;;;;;;0.20;0.20;;;;;;;;;;6289795;28;20032;-76
2023/12/24 09:11:14;;;;;;;0.20;0.20;;;;;;;;;;6290489;28;20044;-76
2023/12/24 09:14:14;;;;;;;0.20;0.20;;;;;;;;;;6288556;28;20017;-76
2023/12/24 09:17:15;;;;;;;0.20;0.20;;;;;;;;;;6271771;28;20071;-76
2023/12/24 09:20:15;;;;;;;0.20;0.20;;;;;;;;;;6269409;28;20569;-75
2023/12/24 09:23:15;;;;;;;0.20;0.20;;;;;;;;;;6287641;28;20090;-75
2023/12/24 09:26:15;;;;;;;0.20;0.20;;;;;;;;;;6285295;28;20137;-75
2023/12/24 09:29:19;;;;;;;0.20;0.20;;;;;;;;;;6290272;28;20020;-75
2023/12/24 09:32:19;;;;;;;0.20;0.20;;;;;;;;;;6276459;28;20112;-75
2023/12/24 09:35:20;;;;;;;0.20;0.20;;;;;;;;;;6274257;28;20016;-76
2023/12/24 09:38:20;;;;;;;0.20;0.20;;;;;;;;;;6284423;28;20467;-76
2023/12/24 09:41:20;;;;;;;0.20;0.20;;;;;;;;;;6285769;28;20052;-76
2023/12/24 09:44:22;;;;;;;0.20;0.20;;;;;;;;;;6279069;28;20107;-75
2023/12/24 09:47:22;;;;;;;0.20;0.20;;;;;;;;;;6287595;28;20058;-76
2023/12/24 09:50:22;;;;;;;0.20;0.20;;;;;;;;;;6285039;28;20106;-76
2023/12/24 09:53:22;;;;;;;0.20;0.20;;;;;;;;;;6288047;28;20024;-75
2023/12/24 09:56:23;;;;;;;0.20;0.20;;;;;;;;;;6289983;28;20100;-76
2023/12/24 09:59:23;;;;;;;0.20;0.20;;;;;;;;;;6270914;28;20024;-77
2023/12/24 10:02:23;;;;;;;0.20;0.20;;;;;;;;;;6268728;28;20099;-78
2023/12/24 10:05:23;;;;;;;0.20;0.20;;;;;;;;;;6282149;28;20089;-78
2023/12/24 10:08:24;;;;;;;0.10;0.10;;;;;;;;;;6271240;28;20056;-78
2023/12/24 10:11:24;;;;;;;0.20;0.20;;;;;;;;;;6289158;28;20471;-77
2023/12/24 10:14:24;;;;;;;0.20;0.20;;;;;;;;;;6281525;28;20060;-77
2023/12/24 10:17:29;;;;;;;0.20;0.20;;;;;;;;;;6288356;28;20063;-76
2023/12/24 10:20:29;;;;;;;0.20;0.20;;;;;;;;;;6290644;28;20021;-77
2023/12/24 10:23:29;;;;;;;0.20;0.20;;;;;;;;;;6276481;28;20326;-77
2023/12/24 10:26:29;;;;;;;0.20;0.20;;;;;;;;;;6286588;28;20033;-77
2023/12/24 10:29:29;;;;;;;0.20;0.20;;;;;;;;;;6287203;28;20089;-76
2023/12/24 10:32:30;;;;;;;0.20;0.20;;;;;;;;;;6264941;28;20533;-78
2023/12/24 10:35:30;;;;;;;0.20;0.20;;;;;;;;;;6291947;28;20066;-79
2023/12/24 10:38:30;;;;;;;0.20;0.20;;;;;;;;;;6294191;28;20027;-80
2023/12/24 10:41:31;;;;;;;0.20;0.20;;;;;;;;;;6284460;28;21129;-79
2023/12/24 10:44:31;;;;;;;0.20;0.20;;;;;;;;;;6272415;28;20489;-80
2023/12/24 10:47:32;;;;;;;0.20;0.20;;;;;;;;;;6291729;28;20299;-81
2023/12/24 10:50:33;;;;;;;0.20;0.20;;;;;;;;;;6288638;28;20147;-82
2023/12/24 10:53:39;;;;;;;0.20;0.20;;;;;;;;;;6291136;28;20020;-83
2023/12/24 10:56:54;;;;;;;0.20;0.20;;;;;;;;;;6293648;28;20070;-85
2023/12/24 11:00:06;;;;;;;0.20;0.20;;;;;;;;;;6289805;28;20429;-84
2023/12/24 11:03:06;;;;;;;0.20;0.20;;;;;;;;;;6275581;28;20111;-85
2023/12/24 11:06:07;;;;;;;0.20;0.20;;;;;;;;;;6293785;28;20101;-85
2023/12/24 11:09:16;;;;;;;0.20;0.20;;;;;;;;;;6293841;28;20028;-84
2023/12/24 11:12:28;;;;;;;0.20;0.20;;;;;;;;;;6288926;28;20024;-80
2023/12/24 11:15:45;;;;;;;0.20;0.20;;;;;;;;;;6291585;28;20415;-79
2023/12/24 11:18:46;;;;;;;0.20;0.20;;;;;;;;;;6259511;28;20035;-79
2023/12/24 11:22:06;;;;;;;0.20;0.20;;;;;;;;;;6294180;28;20020;-79
2023/12/24 11:25:15;;;;;;;0.20;0.20;;;;;;;;;;6272068;28;20124;-83
2023/12/24 11:28:25;;;;;;;0.20;0.20;;;;;;;;;;6281037;28;20173;-83
2023/12/24 11:31:26;;;;;;;0.20;0.20;;;;;;;;;;6292232;28;20494;-82
2023/12/24 11:34:35;;;;;;;0.20;0.20;;;;;;;;;;6291767;28;20017;-78
2023/12/24 11:37:36;;;;;;;0.20;0.20;;;;;;;;;;6263806;28;20056;-78
2023/12/24 11:40:36;;;;;;;0.20;0.20;;;;;;;;;;6272277;28;20030;-78
2023/12/24 11:43:38;;;;;;;0.20;0.20;;;;;;;;;;6286637;28;20481;-80
2023/12/24 11:46:38;;;;;;;0.20;0.20;;;;;;;;;;6271312;28;20538;-82
2023/12/24 11:49:42;;;;;;;0.20;0.20;;;;;;;;;;6277105;28;20485;-79
2023/12/24 11:52:43;;;;;;;0.20;0.20;;;;;;;;;;6272682;28;20059;-80
2023/12/24 11:55:44;;;;;;;0.20;0.20;;;;;;;;;;6289734;28;20046;-79
2023/12/24 11:58:50;;;;;;;0.20;0.20;;;;;;;;;;6284221;28;20021;-79
2023/12/24 12:02:02;;;;;;;0.20;0.20;;;;;;;;;;6270094;28;20483;-78
2023/12/24 12:05:02;;;;;;;0.20;0.20;;;;;;;;;;6281961;28;20483;-78
2023/12/24 12:08:02;;;;;;;0.20;0.20;;;;;;;;;;6292317;28;20036;-78
2023/12/24 12:11:02;;;;;;;0.20;0.20;;;;;;;;;;6271775;28;20029;-78
2023/12/24 12:14:03;;;;;;;0.20;0.20;;;;;;;;;;6286017;28;20032;-77
2023/12/24 12:17:03;;;;;;;0.20;0.20;;;;;;;;;;6271432;28;20528;-77
2023/12/24 12:20:04;;;;;;;0.20;0.20;;;;;;;;;;6287998;28;20025;-76
2023/12/24 12:23:05;;;;;;;0.20;0.20;;;;;;;;;;6285554;28;20223;-75
2023/12/24 12:26:06;;;;;;;0.20;0.20;;;;;;;;;;6269701;28;20115;-76
2023/12/24 12:29:06;;;;;;;0.20;0.20;;;;;;;;;;6290971;28;20043;-77
2023/12/24 12:32:07;;;;;;;0.20;0.20;;;;;;;;;;6274758;28;20013;-77
2023/12/24 12:35:07;;;;;;;0.20;0.20;;;;;;;;;;6282186;28;20032;-76
2023/12/24 12:38:07;;;;;;;0.20;0.20;;;;;;;;;;6278290;28;20311;-77
2023/12/24 12:41:07;;;;;;;0.20;0.20;;;;;;;;;;6275663;28;20032;-76
2023/12/24 12:44:08;;;;;;;0.20;0.20;;;;;;;;;;6289523;28;20574;-76
2023/12/24 12:47:10;;;;;;;0.20;0.20;;;;;;;;;;6274529;28;20019;-76
2023/12/24 12:50:10;;;;;;;;;;;;;;;;;;6283682;28;20449;-77
2023/12/24 12:53:10;;;;;;;0.20;0.20;;;;;;;;;;6287918;28;19908;-74
2023/12/24 12:56:10;;;;;;;0.20;0.20;;;;;;;;;;6273523;28;20386;-75
2023/12/24 12:59:25;;;;;;;0.20;0.20;;;;;;;;;;6272501;28;20081;-74
2023/12/24 13:02:26;;;;;;;0.20;0.20;;;;;;;;;;6282896;28;20027;-75
2023/12/24 13:05:27;;;;;;;0.20;0.20;;;;;;;;;;6291874;28;20040;-74
2023/12/24 13:08:27;;;;;;;0.20;0.20;;;;;;;;;;6274230;28;20020;-73
2023/12/24 13:11:28;;;;;;;0.20;0.20;;;;;;;;;;6281433;28;20032;-73
2023/12/24 13:14:28;;;;;;;0.20;0.20;;;;;;;;;;6286191;28;20032;-73
2023/12/24 13:17:28;;;;;;;0.20;0.20;;;;;;;;;;6291216;28;20019;-74
2023/12/24 13:20:29;;;;;;;0.20;0.20;;;;;;;;;;6285660;28;20471;-75
2023/12/24 13:23:30;;;;;;;0.20;0.20;;;;;;;;;;6270871;28;20059;-74
2023/12/24 13:26:30;;;;;;;0.20;0.20;;;;;;;;;;6276446;28;20055;-75
2023/12/24 13:29:30;;;;;;;0.20;0.20;;;;;;;;;;6269926;28;20032;-74
2023/12/24 13:32:30;;;;;;;0.20;0.20;;;;;;;;;;6294329;28;20103;-75
2023/12/24 13:35:37;;;;;;;0.20;0.20;;;;;;;;;;6287915;28;20033;-76
2023/12/24 13:38:37;;;;;;;0.20;0.20;;;;;;;;;;6300297;28;20024;-76
2023/12/24 13:41:37;;;;;;;0.20;0.20;;;;;;;;;;6270111;28;20036;-76
2023/12/24 13:44:37;;;;;;;0.20;0.20;;;;;;;;;;6288460;28;20033;-78
2023/12/24 13:47:38;;;;;;;0.20;0.20;;;;;;;;;;6272347;28;20036;-78
2023/12/24 13:50:38;;;;;;;0.20;0.20;;;;;;;;;;6285697;28;20028;-81
2023/12/24 13:53:38;;;;;;;0.20;0.20;;;;;;;;;;6279017;28;20504;-82
2023/12/24 13:56:38;;;;;;;0.20;0.20;;;;;;;;;;6288996;28;20439;-82
2023/12/24 13:59:39;;;;;;;0.20;0.20;;;;;;;;;;6285678;28;20021;-85
2023/12/24 14:02:39;;;;;;;0.20;0.20;;;;;;;;;;6259780;28;20024;-88
2023/12/24 14:05:40;;;;;;;0.20;0.20;;;;;;;;;;6283424;28;20083;-91
2023/12/24 14:08:40;;;;;;;0.20;0.20;;;;;;;;;;6279233;28;20028;-91
2023/12/24 14:11:40;;;;;;;0.20;0.20;;;;;;;;;;6287848;28;20049;-93
2023/12/24 14:14:40;;;;;;;0.20;0.20;;;;;;;;;;6291671;28;20134;-90
2023/12/24 14:17:40;;;;;;;0.20;0.20;;;;;;;;;;6287918;28;20498;-90
2023/12/24 14:20:41;;;;;;;0.20;0.20;;;;;;;;;;6293568;28;20039;-86
2023/12/24 14:23:41;;;;;;;0.20;0.20;;;;;;;;;;6275644;28;20127;-79
2023/12/24 14:26:42;;;;;;;0.20;0.20;;;;;;;;;;6281954;28;20036;-80
2023/12/24 14:29:42;;;;;;;0.20;0.20;;;;;;;;;;6288097;28;20024;-79
2023/12/24 14:32:42;;;;;;;0.20;0.20;;;;;;;;;;6294150;28;20112;-82
2023/12/24 14:35:42;;;;;;;0.20;0.20;;;;;;;;;;6291640;28;20033;-81
2023/12/24 14:38:43;;;;;;;0.20;0.20;;;;;;;;;;6286662;28;20119;-81
2023/12/24 14:41:43;;;;;;;0.20;0.20;;;;;;;;;;6291375;28;20024;-80
2023/12/24 14:44:43;;;;;;;0.20;0.20;;;;;;;;;;6266837;28;20109;-80
2023/12/24 14:47:43;;;;;;;0.20;0.20;;;;;;;;;;6261985;28;20020;-80
2023/12/24 14:50:43;;;;;;;0.20;0.20;;;;;;;;;;6293251;28;20078;-79
2023/12/24 14:53:44;;;;;;;0.20;0.20;;;;;;;;;;6295379;28;20056;-79
2023/12/24 14:56:44;;;;;;;0.20;0.20;;;;;;;;;;6283509;28;20099;-79
2023/12/24 14:59:46;;;;;;;0.20;0.20;;;;;;;;;;6285170;28;20012;-78
2023/12/24 15:02:46;;;;;;;0.20;0.20;;;;;;;;;;6292491;28;20100;-78
2023/12/24 15:05:46;;;;;;;0.20;0.20;;;;;;;;;;6295102;28;20048;-77
2023/12/24 15:08:47;;;;;;;0.20;0.20;;;;;;;;;;6276320;28;20020;-77
2023/12/24 15:11:47;;;;;;;0.20;0.20;;;;;;;;;;6294763;28;20016;-77
2023/12/24 15:14:47;;;;;;;0.20;0.20;;;;;;;;;;6286378;28;20527;-78
2023/12/24 15:17:48;;;;;;;0.20;0.20;;;;;;;;;;6291901;28;20029;-78
2023/12/24 15:20:48;;;;;;;0.20;0.20;;;;;;;;;;6289201;28;20067;-78
2023/12/24 15:23:48;;;;;;;0.20;0.20;;;;;;;;;;6292862;28;20028;-79
2023/12/24 15:26:49;;;;;;;0.20;0.20;;;;;;;;;;6281997;28;20097;-78
2023/12/24 15:29:49;;;;;;;0.20;0.20;;;;;;;;;;6269761;28;20032;-78
2023/12/24 15:32:51;;;;;;;0.20;0.20;;;;;;;;;;6274127;28;20368;-78
2023/12/24 15:35:51;;;;;;;0.20;0.20;;;;;;;;;;6291195;28;20024;-78
2023/12/24 15:38:51;;;;;;;0.20;0.20;;;;;;;;;;6294030;28;20059;-78
2023/12/24 15:41:51;;;;;;;0.20;0.20;;;;;;;;;;6275854;28;20025;-78
2023/12/24 15:44:52;;;;;;;0.20;0.20;;;;;;;;;;6291500;28;20153;-78
2023/12/24 15:47:52;;;;;;;0.10;0.10;;;;;;;;;;6288636;28;20035;-78
2023/12/24 15:50:52;;;;;;;0.20;0.20;;;;;;;;;;6282274;28;20027;-79
2023/12/24 15:53:53;;;;;;;0.20;0.20;;;;;;;;;;6270485;28;20063;-82
2023/12/24 15:56:53;;;;;;;0.20;0.20;;;;;;;;;;6293301;28;20024;-81
2023/12/24 15:59:53;;;;;;;0.20;0.20;;;;;;;;;;6274904;28;20573;-83
2023/12/24 16:02:54;;;;;;;0.20;0.20;;;;;;;;;;6290914;28;20028;-84
2023/12/24 16:05:54;;;;;;;0.20;0.20;;;;;;;;;;6284558;28;20049;-83
2023/12/24 16:08:55;;;;;;;0.10;0.10;;;;;;;;;;6280716;28;20064;-82
2023/12/24 16:11:55;;;;;;;0.20;0.20;;;;;;;;;;6263103;28;20052;-83
2023/12/24 16:14:56;;;;;;;0.20;0.20;;;;;;;;;;6284102;28;20030;-84
2023/12/24 16:17:56;;;;;;;0.20;0.20;;;;;;;;;;6292138;28;20463;-83
2023/12/24 16:20:56;;;;;;;0.20;0.20;;;;;;;;;;6283269;28;20031;-83
2023/12/24 16:23:56;;;;;;;0.20;0.20;;;;;;;;;;6271126;28;20655;-84
2023/12/24 16:26:56;;;;;;;0.20;0.20;;;;;;;;;;6291767;28;20028;-83
2023/12/24 16:29:57;;;;;;;0.20;0.20;;;;;;;;;;6281422;28;20037;-83
2023/12/24 16:32:57;;;;;;;0.20;0.20;;;;;;;;;;6285944;28;20028;-83
2023/12/24 16:35:58;;;;;;;0.20;0.20;;;;;;;;;;6290483;28;20463;-83
2023/12/24 16:38:59;;;;;;;0.20;0.20;;;;;;;;;;6268811;28;20120;-82
2023/12/24 16:41:59;;;;;;;0.20;0.20;;;;;;;;;;6274154;28;20349;-82
2023/12/24 16:44:59;;;;;;;0.20;0.20;;;;;;;;;;6282506;28;20032;-82
2023/12/24 16:48:00;;;;;;;0.20;0.20;;;;;;;;;;6287159;28;20020;-81
2023/12/24 16:51:00;;;;;;;0.20;0.20;;;;;;;;;;6265067;28;20024;-80
2023/12/24 16:54:00;;;;;;;0.20;0.20;;;;;;;;;;6287215;28;20653;-83
2023/12/24 16:57:01;;;;;;;0.20;0.20;;;;;;;;;;6296843;28;20247;-82
2023/12/24 17:00:01;;;;;;;0.20;0.20;;;;;;;;;;6274903;28;20397;-82
2023/12/24 17:03:03;;;;;;;0.20;0.20;;;;;;;;;;6290692;28;20029;-82
2023/12/24 17:06:05;;;;;;;0.20;0.20;;;;;;;;;;6300312;28;20511;-81
2023/12/24 17:09:08;;;;;;;0.20;0.20;;;;;;;;;;6275504;28;20153;-82
2023/12/24 17:12:08;;;;;;;0.20;0.20;;;;;;;;;;6297600;28;20016;-82
2023/12/24 17:15:08;;;;;;;0.15;0.15;;;;;;;;;;6289851;28;20546;-81
2023/12/24 17:18:09;;;;;;;0.20;0.20;;;;;;;;;;6286233;28;20023;-81
2023/12/24 17:21:09;;;;;;;0.20;0.20;;;;;;;;;;6297935;28;20432;-80
2023/12/24 17:24:09;;;;;;;0.20;0.20;;;;;;;;;;6285953;28;20375;-81
2023/12/24 17:27:09;;;;;;;0.13;0.13;;;;;;;;;;6274821;28;20024;-80
2023/12/24 17:30:11;;;;;;;0.20;0.20;;;;;;;;;;6275456;28;20052;-80
2023/12/24 17:33:12;;;;;;;0.20;0.20;;;;;;;;;;6273727;28;20453;-79
2023/12/24 17:36:15;;;;;;;0.20;0.20;;;;;;;;;;6294462;28;20463;-79
2023/12/24 17:39:15;;;;;;;0.20;0.20;;;;;;;;;;6294238;28;20012;-79
2023/12/24 17:42:16;;;;;;;0.20;0.20;;;;;;;;;;6293697;28;20135;-81
2023/12/24 17:45:16;;;;;;;0.20;0.20;;;;;;;;;;6290618;28;20107;-80
2023/12/24 17:48:16;;;;;;;0.20;0.20;;;;;;;;;;6281514;28;20541;-80
2023/12/24 17:51:16;;;;;;;0.20;0.20;;;;;;;;;;6299998;28;20024;-80
2023/12/24 17:54:16;;;;;;;0.20;0.20;;;;;;;;;;6295024;28;20039;-81
2023/12/24 17:57:19;;;;;;;0.20;0.20;;;;;;;;;;6289997;28;20030;-81
2023/12/24 18:00:19;;;;;;;0.20;0.20;;;;;;;;;;6285231;28;20074;-82
2023/12/24 18:03:19;;;;;;;0.20;0.20;;;;;;;;;;6293944;28;20016;-81